Time;durP1;ratioP1;P1;durP2;ratioP2;P2;SDS_P1;SDS_P2;PMS_P1;PMS_P2;Temp;Humidity;BMP_temperature;BMP_pressure;BME280_temperature;BME280_humidity;BME280_pressure;Samples;Min_cycle;Max_cycle;Signal;HPM_P1;HPM_P2
2023/06/12 00:01:29;;;;;;;5.57;5.07;;;;;;;;;;6235765;28;20444;-61
2023/06/12 00:04:33;;;;;;;5.27;4.77;;;;;;;;;;6245468;28;20448;-61
2023/06/12 00:07:36;;;;;;;5.00;4.50;;;;;;;;;;6246151;28;20440;-63
2023/06/12 00:10:39;;;;;;;6.30;5.00;;;;;;;;;;6240789;27;20487;-63
2023/06/12 00:13:44;;;;;;;9.10;4.57;;;;;;;;;;6240259;27;20593;-61
2023/06/12 00:16:48;;;;;;;4.93;4.50;;;;;;;;;;6268970;28;20509;-61
2023/06/12 00:19:51;;;;;;;6.40;4.80;;;;;;;;;;6245214;28;20444;-61
2023/06/12 00:22:54;;;;;;;5.10;4.70;;;;;;;;;;6235669;27;20978;-61
2023/06/12 00:25:56;;;;;;;4.40;4.00;;;;;;;;;;6244832;28;20433;-61
2023/06/12 00:29:01;;;;;;;5.17;4.67;;;;;;;;;;6245389;28;20941;-61
2023/06/12 00:32:04;;;;;;;5.10;4.60;;;;;;;;;;6245465;28;20432;-63
2023/06/12 00:35:07;;;;;;;4.67;4.20;;;;;;;;;;6235051;28;20440;-64
2023/06/12 00:38:10;;;;;;;5.50;4.60;;;;;;;;;;6245171;28;20456;-63
2023/06/12 00:41:13;;;;;;;5.20;4.80;;;;;;;;;;6245195;28;20440;-63
2023/06/12 00:44:17;;;;;;;5.20;4.80;;;;;;;;;;6245051;28;20444;-63
2023/06/12 00:47:20;;;;;;;6.53;4.80;;;;;;;;;;6234283;28;20455;-64
2023/06/12 00:50:26;;;;;;;5.27;4.77;;;;;;;;;;6244914;28;20439;-66
2023/06/12 00:53:29;;;;;;;6.17;4.93;;;;;;;;;;6243769;27;20481;-64
2023/06/12 00:56:31;;;;;;;4.77;4.37;;;;;;;;;;6239242;28;20451;-63
2023/06/12 00:59:36;;;;;;;5.43;4.97;;;;;;;;;;6239432;28;20448;-63
2023/06/12 01:02:42;;;;;;;4.83;4.30;;;;;;;;;;6241619;28;20447;-66
2023/06/12 01:05:46;;;;;;;5.33;4.37;;;;;;;;;;6241020;28;20510;-64
2023/06/12 01:08:53;;;;;;;4.93;4.50;;;;;;;;;;6234137;28;20444;-64
2023/06/12 01:11:57;;;;;;;5.13;4.73;;;;;;;;;;6243243;28;20787;-68
2023/06/12 01:15:01;;;;;;;5.03;4.70;;;;;;;;;;6238248;28;20432;-63
2023/06/12 01:18:06;;;;;;;5.30;4.70;;;;;;;;;;6244828;27;20440;-67
2023/06/12 01:21:13;;;;;;;5.60;4.87;;;;;;;;;;6234162;28;20445;-63
2023/06/12 01:24:34;;;;;;;6.07;4.80;;;;;;;;;;6244369;28;20429;-64
2023/06/12 01:27:52;;;;;;;5.00;4.43;;;;;;;;;;6244086;28;20831;-63
2023/06/12 01:31:08;;;;;;;4.80;4.30;;;;;;;;;;6239279;28;20577;-64
2023/06/12 01:34:16;;;;;;;4.30;4.00;;;;;;;;;;6244627;28;20462;-63
2023/06/12 01:37:23;;;;;;;6.40;4.80;;;;;;;;;;6236727;28;20432;-63
2023/06/12 01:40:27;;;;;;;6.53;4.37;;;;;;;;;;6240137;28;20508;-66
2023/06/12 01:43:30;;;;;;;5.67;4.23;;;;;;;;;;6222323;28;20444;-65
2023/06/12 01:46:33;;;;;;;4.73;4.33;;;;;;;;;;6244110;28;20448;-66
2023/06/12 01:49:38;;;;;;;4.87;4.47;;;;;;;;;;6230786;27;20934;-66
2023/06/12 01:52:41;;;;;;;5.00;4.60;;;;;;;;;;6224611;28;20995;-65
2023/06/12 01:55:44;;;;;;;4.70;4.30;;;;;;;;;;6243999;28;20444;-65
2023/06/12 01:58:47;;;;;;;5.70;4.47;;;;;;;;;;6243881;27;21019;-66
2023/06/12 02:01:49;;;;;;;5.47;4.53;;;;;;;;;;6244039;28;20497;-66
2023/06/12 02:04:54;;;;;;;5.07;4.67;;;;;;;;;;6235724;27;20818;-66
2023/06/12 02:07:57;;;;;;;4.90;4.50;;;;;;;;;;6235535;27;20432;-66
2023/06/12 02:10:59;;;;;;;5.43;4.67;;;;;;;;;;6223318;28;20436;-66
2023/06/12 02:14:02;;;;;;;5.50;5.00;;;;;;;;;;6230858;28;20440;-66
2023/06/12 02:17:05;;;;;;;4.57;4.17;;;;;;;;;;6233013;28;20463;-67
2023/06/12 02:20:10;;;;;;;4.77;4.27;;;;;;;;;;6243639;27;20448;-66
2023/06/12 02:23:13;;;;;;;6.87;4.50;;;;;;;;;;6243443;27;20427;-66
2023/06/12 02:26:17;;;;;;;5.33;4.93;;;;;;;;;;6235861;27;20553;-66
2023/06/12 02:29:20;;;;;;;6.97;4.83;;;;;;;;;;6238516;28;20523;-66
2023/06/12 02:32:22;;;;;;;6.13;4.57;;;;;;;;;;6243322;28;20432;-66
2023/06/12 02:35:27;;;;;;;4.90;4.50;;;;;;;;;;6243529;28;20444;-66
2023/06/12 02:38:30;;;;;;;4.70;4.33;;;;;;;;;;6231937;27;20925;-65
2023/06/12 02:41:32;;;;;;;5.70;5.20;;;;;;;;;;6243417;28;20445;-66
2023/06/12 02:44:35;;;;;;;5.00;4.57;;;;;;;;;;6243508;28;20436;-66
2023/06/12 02:47:38;;;;;;;7.17;5.00;;;;;;;;;;6243210;27;20523;-69
2023/06/12 02:50:42;;;;;;;5.27;4.43;;;;;;;;;;6232882;28;20925;-66
2023/06/12 02:53:45;;;;;;;6.13;4.43;;;;;;;;;;6242632;28;20529;-66
2023/06/12 02:56:48;;;;;;;7.00;4.80;;;;;;;;;;6242815;28;20444;-65
2023/06/12 02:59:51;;;;;;;7.90;4.70;;;;;;;;;;6238371;28;20832;-65
2023/06/12 03:02:55;;;;;;;4.70;4.27;;;;;;;;;;6234899;28;20882;-66
2023/06/12 03:05:59;;;;;;;5.53;4.87;;;;;;;;;;6242677;28;20554;-66
2023/06/12 03:09:03;;;;;;;6.80;4.60;;;;;;;;;;6227146;27;20429;-66
2023/06/12 03:12:07;;;;;;;10.43;5.23;;;;;;;;;;6223435;27;20448;-63
2023/06/12 03:15:10;;;;;;;7.77;5.60;;;;;;;;;;6242318;28;20483;-63
2023/06/12 03:18:13;;;;;;;8.40;4.70;;;;;;;;;;6246667;27;20447;-63
2023/06/12 03:21:17;;;;;;;5.83;4.20;;;;;;;;;;6246064;28;20448;-63
2023/06/12 03:24:21;;;;;;;5.77;4.83;;;;;;;;;;6235753;28;20825;-63
2023/06/12 03:27:25;;;;;;;5.30;4.80;;;;;;;;;;6246391;28;20451;-62
2023/06/12 03:30:28;;;;;;;13.63;12.53;;;;;;;;;;6246168;27;20448;-63
2023/06/12 03:33:31;;;;;;;13.53;12.27;;;;;;;;;;6245769;28;20436;-63
2023/06/12 03:36:37;;;;;;;27.67;25.20;;;;;;;;;;6235485;28;20860;-63
2023/06/12 03:39:40;;;;;;;28.17;25.57;;;;;;;;;;6246306;28;20440;-62
2023/06/12 03:42:43;;;;;;;12.17;10.97;;;;;;;;;;6246424;28;20436;-63
2023/06/12 03:45:46;;;;;;;7.97;7.27;;;;;;;;;;6274702;28;20525;-62
2023/06/12 03:48:49;;;;;;;6.03;5.63;;;;;;;;;;6240775;28;20444;-63
2023/06/12 03:51:53;;;;;;;7.37;5.93;;;;;;;;;;6246202;28;20840;-63
2023/06/12 03:54:56;;;;;;;7.23;5.97;;;;;;;;;;6249903;27;20436;-63
2023/06/12 03:57:58;;;;;;;5.67;5.07;;;;;;;;;;6233876;27;20459;-63
2023/06/12 04:01:01;;;;;;;6.97;5.17;;;;;;;;;;6250356;27;20440;-63
2023/06/12 04:04:04;;;;;;;5.77;5.17;;;;;;;;;;6245362;28;20440;-63
2023/06/12 04:07:08;;;;;;;5.57;5.03;;;;;;;;;;6246123;28;20947;-63
2023/06/12 04:10:11;;;;;;;7.87;4.57;;;;;;;;;;6236041;27;20436;-63
2023/06/12 04:13:14;;;;;;;7.40;5.47;;;;;;;;;;6221742;28;20429;-64
2023/06/12 04:16:18;;;;;;;6.93;5.17;;;;;;;;;;6236620;28;20447;-63
2023/06/12 04:19:21;;;;;;;12.87;7.40;;;;;;;;;;6242760;28;20513;-63
2023/06/12 04:22:28;;;;;;;8.10;5.97;;;;;;;;;;6239997;28;20452;-63
2023/06/12 04:25:31;;;;;;;6.87;6.07;;;;;;;;;;6235368;28;20456;-63
2023/06/12 04:28:34;;;;;;;8.40;6.23;;;;;;;;;;6221249;28;20452;-63
2023/06/12 04:31:36;;;;;;;8.73;6.77;;;;;;;;;;6211226;28;20465;-63
2023/06/12 04:34:41;;;;;;;7.23;6.53;;;;;;;;;;6220742;28;20837;-63
2023/06/12 04:37:48;;;;;;;7.00;6.30;;;;;;;;;;6221490;28;20495;-63
2023/06/12 04:40:51;;;;;;;6.17;5.57;;;;;;;;;;6221376;28;20437;-63
2023/06/12 04:43:58;;;;;;;8.07;6.30;;;;;;;;;;6210849;28;20444;-63
2023/06/12 04:47:04;;;;;;;6.50;5.97;;;;;;;;;;6221210;28;20575;-62
2023/06/12 04:50:09;;;;;;;8.07;6.40;;;;;;;;;;6221024;28;20429;-62
2023/06/12 04:53:17;;;;;;;6.30;5.80;;;;;;;;;;6221028;28;20421;-62
2023/06/12 04:56:21;;;;;;;6.83;6.20;;;;;;;;;;6211144;28;20437;-62
2023/06/12 04:59:24;;;;;;;6.83;6.10;;;;;;;;;;6220851;28;20846;-63
2023/06/12 05:02:27;;;;;;;8.87;6.70;;;;;;;;;;6220488;28;20448;-62
2023/06/12 05:05:30;;;;;;;5.87;5.33;;;;;;;;;;6211915;28;20448;-63
2023/06/12 05:08:35;;;;;;;5.90;5.40;;;;;;;;;;6219782;28;20440;-62
2023/06/12 05:11:37;;;;;;;6.17;5.57;;;;;;;;;;6220626;28;20449;-69
2023/06/12 05:14:41;;;;;;;7.10;6.00;;;;;;;;;;6235845;28;20436;-62
2023/06/12 05:17:44;;;;;;;6.03;5.47;;;;;;;;;;6236080;28;21105;-63
2023/06/12 05:20:47;;;;;;;6.13;5.53;;;;;;;;;;6245094;27;20455;-63
2023/06/12 05:23:52;;;;;;;7.33;5.97;;;;;;;;;;6245005;28;20929;-63
2023/06/12 05:26:55;;;;;;;6.77;5.47;;;;;;;;;;6244954;28;20899;-63
2023/06/12 05:29:58;;;;;;;6.17;5.60;;;;;;;;;;6235735;27;20842;-62
2023/06/12 05:33:01;;;;;;;8.00;5.67;;;;;;;;;;6220153;28;20487;-62
2023/06/12 05:36:04;;;;;;;7.77;5.73;;;;;;;;;;6220271;28;20520;-62
2023/06/12 05:39:09;;;;;;;9.47;6.20;;;;;;;;;;6215064;28;20453;-62
2023/06/12 05:42:16;;;;;;;9.07;7.00;;;;;;;;;;6215000;28;20441;-62
2023/06/12 05:45:18;;;;;;;7.67;6.93;;;;;;;;;;6220109;28;20869;-62
2023/06/12 05:48:21;;;;;;;7.47;6.63;;;;;;;;;;6219980;28;20477;-62
2023/06/12 05:51:25;;;;;;;6.00;5.60;;;;;;;;;;6211030;28;20441;-62
2023/06/12 05:54:29;;;;;;;7.70;7.00;;;;;;;;;;6219952;28;20447;-62
2023/06/12 05:57:34;;;;;;;7.70;7.03;;;;;;;;;;6220068;28;20425;-62
2023/06/12 06:00:37;;;;;;;6.90;6.17;;;;;;;;;;6219845;28;20439;-63
2023/06/12 06:03:42;;;;;;;7.13;6.43;;;;;;;;;;6210166;28;20453;-62
2023/06/12 06:06:46;;;;;;;7.00;6.30;;;;;;;;;;6220322;28;20433;-64
2023/06/12 06:09:51;;;;;;;8.00;7.20;;;;;;;;;;6219674;28;20444;-62
2023/06/12 06:12:54;;;;;;;7.37;6.77;;;;;;;;;;6219932;28;20791;-65
2023/06/12 06:15:57;;;;;;;7.90;6.37;;;;;;;;;;6236470;28;20821;-63
2023/06/12 06:18:59;;;;;;;7.70;7.00;;;;;;;;;;6244174;27;20452;-62
2023/06/12 06:22:04;;;;;;;6.03;5.53;;;;;;;;;;6243946;28;20493;-62
2023/06/12 06:25:10;;;;;;;8.03;6.83;;;;;;;;;;6236164;28;20432;-62
2023/06/12 06:28:13;;;;;;;7.93;7.23;;;;;;;;;;6243307;28;20964;-62
2023/06/12 06:31:16;;;;;;;7.10;6.37;;;;;;;;;;6244240;27;20424;-62
2023/06/12 06:34:19;;;;;;;6.50;5.90;;;;;;;;;;6243526;27;20436;-62
2023/06/12 06:37:22;;;;;;;6.87;5.97;;;;;;;;;;6234986;27;20818;-63
2023/06/12 06:40:27;;;;;;;8.80;8.00;;;;;;;;;;6243635;28;20511;-62
2023/06/12 06:43:30;;;;;;;7.13;6.53;;;;;;;;;;6243441;28;20448;-62
2023/06/12 06:46:32;;;;;;;6.87;6.17;;;;;;;;;;6243499;28;20879;-62
2023/06/12 06:49:35;;;;;;;6.27;5.77;;;;;;;;;;6235839;28;20531;-62
2023/06/12 06:52:38;;;;;;;7.70;7.00;;;;;;;;;;6246775;27;20961;-63
2023/06/12 06:55:43;;;;;;;7.00;6.10;;;;;;;;;;6247279;28;20451;-63
2023/06/12 06:58:46;;;;;;;6.60;6.00;;;;;;;;;;6243648;28;20523;-63
2023/06/12 07:01:48;;;;;;;7.97;6.00;;;;;;;;;;6243096;27;20454;-62
2023/06/12 07:04:51;;;;;;;8.17;6.13;;;;;;;;;;6245991;27;20456;-63
2023/06/12 07:07:54;;;;;;;6.80;6.17;;;;;;;;;;6247226;28;20455;-64
2023/06/12 07:11:05;;;;;;;7.80;6.10;;;;;;;;;;6238814;27;20436;-63
2023/06/12 07:14:08;;;;;;;6.07;5.57;;;;;;;;;;6290846;28;20451;-63
2023/06/12 07:17:11;;;;;;;7.13;6.43;;;;;;;;;;6351404;27;20479;-63
2023/06/12 07:20:14;;;;;;;6.63;5.60;;;;;;;;;;6351238;28;20440;-64
2023/06/12 07:23:17;;;;;;;6.17;5.67;;;;;;;;;;6343156;28;20444;-62
2023/06/12 07:26:23;;;;;;;5.77;5.27;;;;;;;;;;6351259;28;20444;-62
2023/06/12 07:29:32;;;;;;;6.23;5.63;;;;;;;;;;6351182;28;20930;-66
2023/06/12 07:32:35;;;;;;;6.23;5.60;;;;;;;;;;6348259;28;20925;-66
2023/06/12 07:35:38;;;;;;;5.80;5.40;;;;;;;;;;6346012;27;20440;-63
2023/06/12 07:38:40;;;;;;;5.77;5.33;;;;;;;;;;6350862;28;20485;-63
2023/06/12 07:41:45;;;;;;;5.60;5.20;;;;;;;;;;6350965;27;20486;-63
2023/06/12 07:44:47;;;;;;;6.20;5.70;;;;;;;;;;6277294;27;20460;-63
2023/06/12 07:47:52;;;;;;;5.40;4.90;;;;;;;;;;6246331;27;20432;-63
2023/06/12 07:50:57;;;;;;;5.93;5.43;;;;;;;;;;6246438;28;20420;-63
2023/06/12 07:54:00;;;;;;;5.97;5.47;;;;;;;;;;6246312;28;20600;-62
2023/06/12 07:57:06;;;;;;;6.73;5.40;;;;;;;;;;6237767;27;20458;-63
2023/06/12 08:00:09;;;;;;;6.13;5.63;;;;;;;;;;6246116;28;20436;-63
2023/06/12 08:03:15;;;;;;;5.50;5.00;;;;;;;;;;6245029;28;21235;-67
2023/06/12 08:06:33;;;;;;;5.30;4.90;;;;;;;;;;6245274;28;20433;-66
2023/06/12 08:09:36;;;;;;;6.10;5.50;;;;;;;;;;6239835;28;20448;-63
2023/06/12 08:12:41;;;;;;;5.10;4.70;;;;;;;;;;6245918;28;20832;-63
2023/06/12 08:15:44;;;;;;;5.40;4.90;;;;;;;;;;6246053;27;20859;-63
2023/06/12 08:18:47;;;;;;;8.03;5.73;;;;;;;;;;6237008;28;20557;-62
2023/06/12 08:21:49;;;;;;;5.40;4.90;;;;;;;;;;6245518;27;20451;-63
2023/06/12 08:24:52;;;;;;;7.20;5.40;;;;;;;;;;6246024;27;20452;-63
2023/06/12 08:27:57;;;;;;;7.00;5.33;;;;;;;;;;6245978;27;20443;-63
2023/06/12 08:31:01;;;;;;;13.70;12.60;;;;;;;;;;6237862;27;20448;-63
2023/06/12 08:34:04;;;;;;;7.40;6.70;;;;;;;;;;6245559;28;20928;-63
2023/06/12 08:37:07;;;;;;;6.60;6.00;;;;;;;;;;6245695;27;20484;-63
2023/06/12 08:40:11;;;;;;;6.60;6.10;;;;;;;;;;6245531;28;20437;-63
2023/06/12 08:43:16;;;;;;;6.03;5.43;;;;;;;;;;6237124;28;20460;-63
2023/06/12 08:46:19;;;;;;;5.40;5.00;;;;;;;;;;6245576;28;20585;-63
2023/06/12 08:49:22;;;;;;;5.40;5.00;;;;;;;;;;6245567;28;20467;-63
2023/06/12 08:52:25;;;;;;;5.53;5.13;;;;;;;;;;6240834;27;20818;-63
2023/06/12 08:55:28;;;;;;;5.57;5.17;;;;;;;;;;6239817;27;20440;-63
2023/06/12 08:58:33;;;;;;;5.20;4.80;;;;;;;;;;6245441;27;20447;-63
2023/06/12 09:01:38;;;;;;;5.87;5.30;;;;;;;;;;6245333;28;20600;-63
2023/06/12 09:04:44;;;;;;;6.73;6.13;;;;;;;;;;6233960;28;20789;-63
2023/06/12 09:07:48;;;;;;;7.07;6.57;;;;;;;;;;6245205;28;20580;-63
2023/06/12 09:10:52;;;;;;;7.40;6.67;;;;;;;;;;6245344;28;20574;-63
2023/06/12 09:14:00;;;;;;;6.60;6.10;;;;;;;;;;6244039;28;20519;-63
2023/06/12 09:17:03;;;;;;;6.73;6.07;;;;;;;;;;6234854;28;20470;-63
2023/06/12 09:20:07;;;;;;;6.33;5.90;;;;;;;;;;6245002;28;20575;-63
2023/06/12 09:23:11;;;;;;;6.43;5.80;;;;;;;;;;6244933;28;20446;-63
2023/06/12 09:26:15;;;;;;;5.60;5.10;;;;;;;;;;6242503;27;20802;-64
2023/06/12 09:29:20;;;;;;;5.50;5.10;;;;;;;;;;6238892;27;20447;-63
2023/06/12 09:32:28;;;;;;;5.33;4.83;;;;;;;;;;6244791;28;20448;-63
2023/06/12 09:35:31;;;;;;;6.50;5.90;;;;;;;;;;6244895;28;20839;-63
2023/06/12 09:38:35;;;;;;;5.90;5.50;;;;;;;;;;6234681;27;20440;-66
2023/06/12 09:41:38;;;;;;;4.90;4.50;;;;;;;;;;6244504;28;20451;-63
2023/06/12 09:44:42;;;;;;;5.43;4.93;;;;;;;;;;6244536;28;20467;-63
2023/06/12 09:47:46;;;;;;;6.23;5.73;;;;;;;;;;6244736;27;20816;-63
2023/06/12 09:50:49;;;;;;;6.27;5.77;;;;;;;;;;6233830;27;20455;-63
2023/06/12 09:53:52;;;;;;;6.50;5.90;;;;;;;;;;6244679;27;20436;-69
2023/06/12 09:56:57;;;;;;;6.07;5.67;;;;;;;;;;6244509;27;20436;-68
2023/06/12 10:00:02;;;;;;;6.27;5.77;;;;;;;;;;6244668;27;20416;-70
2023/06/12 10:03:09;;;;;;;6.20;5.67;;;;;;;;;;6233457;27;20441;-69
2023/06/12 10:06:13;;;;;;;6.77;6.17;;;;;;;;;;6244304;28;20535;-68
2023/06/12 10:09:16;;;;;;;6.93;6.20;;;;;;;;;;6244150;27;20459;-69
2023/06/12 10:12:19;;;;;;;6.60;6.10;;;;;;;;;;6238085;28;20436;-68
2023/06/12 10:15:24;;;;;;;6.87;6.27;;;;;;;;;;6241003;27;20488;-69
2023/06/12 10:18:28;;;;;;;6.77;6.17;;;;;;;;;;6244162;28;20432;-68
2023/06/12 10:21:31;;;;;;;6.90;6.40;;;;;;;;;;6244189;27;20438;-69
2023/06/12 10:24:34;;;;;;;7.50;6.87;;;;;;;;;;6233192;27;20539;-68
2023/06/12 10:27:37;;;;;;;6.70;6.20;;;;;;;;;;6244137;27;20443;-69
2023/06/12 10:31:04;;;;;;;7.73;6.93;;;;;;;;;;6243818;28;20546;-70
2023/06/12 10:34:10;;;;;;;6.97;6.37;;;;;;;;;;6243680;28;20436;-69
2023/06/12 10:37:26;;;;;;;7.57;7.00;;;;;;;;;;6233015;28;20444;-69
2023/06/12 10:40:30;;;;;;;6.90;6.30;;;;;;;;;;6243585;28;20930;-69
2023/06/12 10:43:51;;;;;;;7.63;6.30;;;;;;;;;;6271173;28;20846;-69
2023/06/12 10:47:04;;;;;;;6.00;5.43;;;;;;;;;;6336739;27;20465;-68
2023/06/12 10:50:07;;;;;;;6.50;5.90;;;;;;;;;;6347465;28;20811;-69
2023/06/12 10:53:11;;;;;;;6.23;5.63;;;;;;;;;;6347203;28;20435;-68
2023/06/12 10:56:14;;;;;;;5.60;5.10;;;;;;;;;;6347268;28;20515;-69
2023/06/12 10:59:17;;;;;;;5.50;5.00;;;;;;;;;;6336288;28;20436;-69
2023/06/12 11:02:22;;;;;;;6.03;4.60;;;;;;;;;;6218732;28;20433;-69
2023/06/12 11:08:48;;;;;;;5.80;5.40;;;;;;;;;;6219064;22;20808;-68
2023/06/12 11:11:51;;;;;;;5.00;4.57;;;;;;;;;;6192164;28;20554;-69
2023/06/12 11:14:54;;;;;;;5.80;5.37;;;;;;;;;;6197782;28;20526;-69
2023/06/12 11:18:03;;;;;;;5.57;5.07;;;;;;;;;;6197656;28;20554;-69
2023/06/12 11:21:07;;;;;;;5.20;4.70;;;;;;;;;;6187450;28;20438;-70
2023/06/12 11:24:11;;;;;;;5.10;4.47;;;;;;;;;;6197614;28;20440;-70
2023/06/12 11:27:15;;;;;;;4.57;4.17;;;;;;;;;;6197517;28;20958;-65
2023/06/12 11:30:18;;;;;;;5.00;4.60;;;;;;;;;;6197380;28;20445;-77
2023/06/12 11:33:36;;;;;;;4.77;4.37;;;;;;;;;;6186808;28;20458;-64
2023/06/12 11:36:40;;;;;;;4.80;4.47;;;;;;;;;;6198012;28;20446;-65
2023/06/12 11:39:43;;;;;;;5.40;4.57;;;;;;;;;;6201695;28;20512;-64
2023/06/12 11:42:49;;;;;;;5.93;5.30;;;;;;;;;;6192827;28;20433;-64
2023/06/12 11:45:52;;;;;;;5.43;5.03;;;;;;;;;;6195271;28;20528;-64
2023/06/12 11:49:00;;;;;;;5.07;4.67;;;;;;;;;;6201291;28;20831;-73
2023/06/12 11:52:06;;;;;;;5.53;5.10;;;;;;;;;;6197522;28;20474;-64
2023/06/12 11:55:10;;;;;;;6.50;5.80;;;;;;;;;;6190302;28;20449;-64
2023/06/12 11:58:16;;;;;;;6.70;5.07;;;;;;;;;;6197393;28;20450;-64
2023/06/12 12:01:23;;;;;;;6.73;5.17;;;;;;;;;;6201305;28;20422;-65
2023/06/12 12:04:28;;;;;;;4.80;4.40;;;;;;;;;;6200962;28;20450;-64
2023/06/12 12:07:32;;;;;;;4.80;4.40;;;;;;;;;;6189553;28;21028;-65
2023/06/12 12:10:39;;;;;;;4.87;4.47;;;;;;;;;;6200899;28;20442;-64
2023/06/12 12:13:48;;;;;;;6.53;5.27;;;;;;;;;;6200739;28;20441;-72
2023/06/12 12:16:51;;;;;;;9.90;5.17;;;;;;;;;;6196110;28;20504;-71
2023/06/12 12:20:02;;;;;;;6.60;5.00;;;;;;;;;;6194968;28;20812;-71
2023/06/12 12:23:10;;;;;;;5.87;4.93;;;;;;;;;;6200579;28;20426;-70
2023/06/12 12:26:13;;;;;;;4.70;4.23;;;;;;;;;;6200430;28;20532;-70
2023/06/12 12:29:17;;;;;;;6.83;4.57;;;;;;;;;;6190118;28;20450;-71
2023/06/12 12:32:20;;;;;;;5.10;4.70;;;;;;;;;;6200469;28;20472;-70
2023/06/12 12:35:25;;;;;;;6.30;5.70;;;;;;;;;;6200722;28;20492;-70
2023/06/12 12:38:28;;;;;;;7.23;6.53;;;;;;;;;;6200618;28;20430;-71
2023/06/12 12:41:31;;;;;;;7.20;6.60;;;;;;;;;;6189221;28;21061;-70
2023/06/12 12:44:34;;;;;;;6.23;5.73;;;;;;;;;;6200246;28;20438;-70
2023/06/12 12:47:40;;;;;;;6.03;5.37;;;;;;;;;;6200289;28;20813;-70
2023/06/12 12:50:44;;;;;;;6.60;5.97;;;;;;;;;;6198271;28;20442;-69
2023/06/12 12:54:07;;;;;;;6.20;5.60;;;;;;;;;;6194439;28;20480;-72
2023/06/12 12:57:10;;;;;;;7.70;6.93;;;;;;;;;;6200263;28;20943;-71
2023/06/12 13:00:17;;;;;;;6.93;6.23;;;;;;;;;;6200584;28;20468;-71
2023/06/12 13:03:21;;;;;;;8.40;6.23;;;;;;;;;;6189954;28;20452;-71
2023/06/12 13:06:26;;;;;;;7.83;5.40;;;;;;;;;;6199107;28;20453;-71
2023/06/12 13:09:29;;;;;;;5.20;4.80;;;;;;;;;;6200129;28;20541;-72
2023/06/12 13:12:33;;;;;;;5.53;5.13;;;;;;;;;;6199932;28;20441;-72
2023/06/12 13:15:36;;;;;;;6.70;4.80;;;;;;;;;;6188831;28;20458;-73
2023/06/12 13:18:39;;;;;;;7.00;5.30;;;;;;;;;;6199811;28;20437;-72
2023/06/12 13:21:46;;;;;;;4.83;4.30;;;;;;;;;;6199830;28;21010;-72
2023/06/12 13:24:48;;;;;;;5.53;4.90;;;;;;;;;;6196999;28;20454;-67
2023/06/12 13:27:51;;;;;;;4.90;4.50;;;;;;;;;;6192948;28;20488;-67
2023/06/12 13:30:54;;;;;;;4.80;4.40;;;;;;;;;;6199665;28;20916;-66
2023/06/12 13:33:57;;;;;;;4.90;4.43;;;;;;;;;;6199638;28;20966;-65
2023/06/12 13:37:01;;;;;;;5.70;4.67;;;;;;;;;;6190022;28;20954;-66
2023/06/12 13:40:06;;;;;;;5.13;4.67;;;;;;;;;;6198654;28;20438;-67
2023/06/12 13:43:09;;;;;;;4.50;4.20;;;;;;;;;;6199395;28;20442;-66
2023/06/12 13:46:11;;;;;;;4.63;4.20;;;;;;;;;;6198947;28;20516;-66
2023/06/12 13:49:14;;;;;;;4.40;4.00;;;;;;;;;;6188412;28;20457;-66
2023/06/12 13:52:19;;;;;;;4.30;3.90;;;;;;;;;;6199331;28;20517;-66
2023/06/12 13:55:22;;;;;;;4.50;4.10;;;;;;;;;;6195701;28;20445;-67
2023/06/12 13:58:25;;;;;;;5.30;4.20;;;;;;;;;;6199066;28;20959;-67
2023/06/12 14:01:29;;;;;;;6.40;4.40;;;;;;;;;;6188140;28;20459;-66
2023/06/12 14:04:32;;;;;;;5.87;4.77;;;;;;;;;;6199033;28;20949;-64
2023/06/12 14:07:37;;;;;;;7.37;5.03;;;;;;;;;;6198817;28;20497;-63
2023/06/12 14:10:42;;;;;;;4.87;4.17;;;;;;;;;;6191752;28;22461;-65
2023/06/12 14:13:45;;;;;;;13.53;5.00;;;;;;;;;;6188664;28;20486;-64
2023/06/12 14:16:48;;;;;;;13.63;3.90;;;;;;;;;;6197492;28;20445;-64
2023/06/12 14:19:51;;;;;;;13.50;4.00;;;;;;;;;;6198255;28;20916;-63
2023/06/12 14:22:55;;;;;;;7.97;3.00;;;;;;;;;;6187836;28;20445;-64
2023/06/12 14:25:58;;;;;;;10.97;4.33;;;;;;;;;;6183687;28;20534;-64
2023/06/12 14:29:01;;;;;;;11.10;3.43;;;;;;;;;;6174381;28;20443;-64
2023/06/12 14:32:04;;;;;;;6.73;3.50;;;;;;;;;;6174250;28;20439;-63
2023/06/12 14:35:08;;;;;;;9.40;2.83;;;;;;;;;;6163638;28;20457;-63
2023/06/12 14:38:12;;;;;;;6.07;2.40;;;;;;;;;;6174522;28;20506;-66
2023/06/12 14:41:15;;;;;;;6.70;2.90;;;;;;;;;;6197125;28;20437;-63
2023/06/12 14:44:17;;;;;;;4.87;2.60;;;;;;;;;;6196194;28;20449;-66
2023/06/12 14:47:20;;;;;;;3.40;2.87;;;;;;;;;;6179277;28;20450;-63
2023/06/12 14:50:23;;;;;;;8.10;3.20;;;;;;;;;;6198239;28;20491;-65
2023/06/12 14:53:27;;;;;;;5.20;3.50;;;;;;;;;;6198090;28;20816;-63
2023/06/12 14:56:35;;;;;;;3.17;2.70;;;;;;;;;;6163686;28;20850;-64
2023/06/12 14:59:38;;;;;;;6.90;3.00;;;;;;;;;;6173607;28;20445;-64
2023/06/12 15:02:41;;;;;;;2.70;2.40;;;;;;;;;;6174216;28;20438;-65
2023/06/12 15:05:44;;;;;;;3.13;2.60;;;;;;;;;;6173808;28;20470;-63
2023/06/12 15:08:49;;;;;;;2.50;2.03;;;;;;;;;;6162677;28;20447;-64
2023/06/12 15:11:51;;;;;;;2.27;2.07;;;;;;;;;;6174753;28;20938;-64
2023/06/12 15:14:54;;;;;;;4.23;2.43;;;;;;;;;;6183959;28;20455;-65
2023/06/12 15:17:57;;;;;;;2.53;2.10;;;;;;;;;;6201235;28;20444;-63
2023/06/12 15:21:00;;;;;;;3.40;2.50;;;;;;;;;;6191228;28;20445;-64
2023/06/12 15:24:04;;;;;;;3.10;2.43;;;;;;;;;;6201396;28;20856;-63
2023/06/12 15:27:07;;;;;;;2.60;2.40;;;;;;;;;;6201354;28;20476;-63
2023/06/12 15:30:11;;;;;;;3.10;2.43;;;;;;;;;;6196740;28;20457;-64
2023/06/12 15:33:13;;;;;;;4.50;2.30;;;;;;;;;;6195910;28;20544;-64
2023/06/12 15:36:16;;;;;;;2.60;2.40;;;;;;;;;;6194587;28;20442;-64
2023/06/12 15:39:20;;;;;;;2.77;2.40;;;;;;;;;;6190939;28;20951;-64
2023/06/12 15:42:23;;;;;;;6.10;2.70;;;;;;;;;;6175847;28;20444;-64
2023/06/12 15:45:26;;;;;;;5.97;3.00;;;;;;;;;;6196487;28;20453;-70
2023/06/12 15:48:29;;;;;;;5.70;2.70;;;;;;;;;;6198900;28;20442;-68
2023/06/12 15:51:32;;;;;;;3.80;2.47;;;;;;;;;;6197802;28;20434;-69
2023/06/12 15:54:36;;;;;;;6.67;2.60;;;;;;;;;;6190442;28;20445;-69
2023/06/12 15:57:39;;;;;;;4.13;3.20;;;;;;;;;;6200915;28;20457;-70
2023/06/12 16:00:42;;;;;;;5.63;2.97;;;;;;;;;;6200218;28;20434;-70
2023/06/12 16:03:45;;;;;;;2.90;2.70;;;;;;;;;;6201170;28;20540;-70
2023/06/12 16:06:48;;;;;;;4.20;2.70;;;;;;;;;;6185074;28;20500;-71
2023/06/12 16:09:53;;;;;;;4.40;2.87;;;;;;;;;;6201040;28;20449;-70
2023/06/12 16:12:56;;;;;;;3.93;3.00;;;;;;;;;;6201070;28;20433;-70
2023/06/12 16:15:59;;;;;;;6.43;3.47;;;;;;;;;;6191071;28;20492;-67
2023/06/12 16:19:02;;;;;;;3.23;2.70;;;;;;;;;;6199888;28;20438;-70
2023/06/12 16:22:05;;;;;;;5.20;2.60;;;;;;;;;;6200672;28;20440;-70
2023/06/12 16:25:10;;;;;;;3.50;2.40;;;;;;;;;;6199748;28;20440;-69
2023/06/12 16:28:13;;;;;;;2.53;2.33;;;;;;;;;;6189085;28;20457;-70
2023/06/12 16:31:16;;;;;;;2.83;2.50;;;;;;;;;;6200517;28;20825;-70
2023/06/12 16:34:21;;;;;;;2.67;2.37;;;;;;;;;;6200750;28;20995;-70
2023/06/12 16:37:26;;;;;;;3.30;2.60;;;;;;;;;;6200369;28;20932;-71
2023/06/12 16:40:31;;;;;;;2.97;2.77;;;;;;;;;;6189423;28;20446;-70
2023/06/12 16:43:34;;;;;;;4.03;3.50;;;;;;;;;;6200636;28;20433;-70
2023/06/12 16:46:37;;;;;;;3.57;3.30;;;;;;;;;;6199671;28;20450;-70
2023/06/12 16:49:40;;;;;;;3.90;3.50;;;;;;;;;;6194913;28;20449;-70
2023/06/12 16:52:43;;;;;;;3.90;3.20;;;;;;;;;;6194813;28;20508;-71
2023/06/12 16:55:47;;;;;;;3.97;3.67;;;;;;;;;;6199560;28;20446;-62
2023/06/12 16:58:50;;;;;;;6.80;4.03;;;;;;;;;;6198210;28;20493;-65
2023/06/12 17:01:53;;;;;;;3.90;3.37;;;;;;;;;;6178972;28;20818;-63
2023/06/12 17:04:56;;;;;;;4.57;3.47;;;;;;;;;;6198467;28;20519;-64
2023/06/12 17:07:59;;;;;;;5.93;3.10;;;;;;;;;;6197848;28;20453;-63
2023/06/12 17:11:05;;;;;;;5.53;3.43;;;;;;;;;;6198996;28;20446;-68
2023/06/12 17:14:08;;;;;;;4.37;3.50;;;;;;;;;;6169125;28;20457;-67
2023/06/12 17:17:12;;;;;;;4.17;3.20;;;;;;;;;;6198986;28;20908;-63
2023/06/12 17:20:15;;;;;;;5.30;3.03;;;;;;;;;;6199264;28;20445;-60
2023/06/12 17:23:18;;;;;;;5.13;3.27;;;;;;;;;;6199233;28;20446;-64
2023/06/12 17:26:22;;;;;;;5.20;3.20;;;;;;;;;;6189356;28;20449;-63
2023/06/12 17:29:27;;;;;;;3.90;2.83;;;;;;;;;;6198758;28;20777;-63
2023/06/12 17:32:30;;;;;;;4.40;3.23;;;;;;;;;;6197383;28;20589;-63
2023/06/12 17:35:33;;;;;;;4.57;2.67;;;;;;;;;;6187653;28;20581;-63
2023/06/12 17:38:36;;;;;;;4.03;2.77;;;;;;;;;;6198107;28;20445;-63
2023/06/12 17:41:41;;;;;;;3.47;3.00;;;;;;;;;;6198618;28;20434;-63
2023/06/12 17:44:44;;;;;;;2.93;2.60;;;;;;;;;;6194658;28;20933;-62
2023/06/12 17:47:47;;;;;;;4.73;3.00;;;;;;;;;;6188629;28;20453;-64
2023/06/12 17:50:50;;;;;;;4.40;2.90;;;;;;;;;;6181860;28;20434;-64
2023/06/12 17:53:52;;;;;;;2.87;2.57;;;;;;;;;;6194255;28;20786;-64
2023/06/12 17:56:58;;;;;;;6.20;3.10;;;;;;;;;;6198812;28;20438;-64
2023/06/12 18:00:04;;;;;;;5.83;2.77;;;;;;;;;;6188073;28;20449;-64
2023/06/12 18:03:07;;;;;;;4.17;3.20;;;;;;;;;;6199143;28;20472;-63
2023/06/12 18:06:10;;;;;;;8.43;5.07;;;;;;;;;;6198148;28;20524;-64
2023/06/12 18:09:13;;;;;;;5.43;4.37;;;;;;;;;;6193907;28;20808;-65
2023/06/12 18:12:18;;;;;;;9.50;5.43;;;;;;;;;;6193686;28;20528;-68
2023/06/12 18:15:21;;;;;;;6.40;5.03;;;;;;;;;;6198647;28;20438;-66
2023/06/12 18:18:24;;;;;;;6.10;4.80;;;;;;;;;;6193836;28;20877;-66
2023/06/12 18:21:26;;;;;;;5.20;4.53;;;;;;;;;;6166358;28;20554;-65
2023/06/12 18:24:29;;;;;;;5.53;4.90;;;;;;;;;;6198479;28;20476;-66
2023/06/12 18:27:34;;;;;;;5.80;5.30;;;;;;;;;;6198330;28;20446;-65